createdAt,value
2022-12-01T00:00:31.250Z,32.70
2022-12-01T00:02:57.688Z,32.77
2022-12-01T00:05:24.061Z,32.82
2022-12-01T00:07:50.398Z,32.81
2022-12-01T00:10:16.780Z,32.84
2022-12-01T00:12:43.125Z,32.84
2022-12-01T00:15:09.551Z,32.85
2022-12-01T00:17:35.900Z,32.84
2022-12-01T00:20:02.269Z,32.86
2022-12-01T00:22:28.625Z,32.88
2022-12-01T00:24:55.009Z,32.90
2022-12-01T00:27:21.352Z,32.89
2022-12-01T00:29:48.202Z,32.88
2022-12-01T00:32:14.095Z,32.87
2022-12-01T00:34:40.461Z,32.84
2022-12-01T00:37:06.810Z,32.94
2022-12-01T00:39:33.209Z,33.00
2022-12-01T00:41:59.552Z,32.98
2022-12-01T00:44:25.940Z,33.00
2022-12-01T00:46:52.287Z,32.96
2022-12-01T00:49:18.711Z,32.91
2022-12-01T00:51:45.050Z,32.94
2022-12-01T00:54:11.443Z,32.98
2022-12-01T00:56:37.784Z,33.01
2022-12-01T00:59:04.174Z,33.06
2022-12-01T01:01:30.609Z,33.06
2022-12-01T01:03:56.927Z,33.04
2022-12-01T01:06:23.264Z,33.06
2022-12-01T01:08:49.658Z,33.04
2022-12-01T01:11:16.032Z,33.11
2022-12-01T01:13:42.408Z,33.11
2022-12-01T01:16:08.889Z,33.11
2022-12-01T01:18:36.467Z,33.12
2022-12-01T01:21:01.574Z,33.11
2022-12-01T01:23:28.019Z,33.15
2022-12-01T01:25:54.397Z,33.10
2022-12-01T01:28:20.789Z,33.13
2022-12-01T01:30:47.203Z,33.15
2022-12-01T01:33:13.528Z,33.17
2022-12-01T01:35:39.870Z,33.16
2022-12-01T01:38:06.253Z,33.21
2022-12-01T01:40:34.549Z,33.24
2022-12-01T01:42:58.991Z,33.25
2022-12-01T01:45:25.364Z,33.25
2022-12-01T01:47:51.786Z,33.23
2022-12-01T01:50:18.161Z,33.24
2022-12-01T01:52:44.574Z,33.25
2022-12-01T01:55:10.952Z,33.24
2022-12-01T01:57:37.365Z,33.26
2022-12-01T02:00:03.721Z,33.25
2022-12-01T02:02:30.183Z,33.29
2022-12-01T02:04:56.500Z,33.33
2022-12-01T02:07:22.951Z,33.37
2022-12-01T02:09:49.590Z,33.31
2022-12-01T02:12:15.665Z,33.32
2022-12-01T02:14:42.037Z,33.36
2022-12-01T02:17:08.481Z,33.37
2022-12-01T02:19:34.789Z,33.36
2022-12-01T02:22:01.169Z,33.42
2022-12-01T02:24:27.519Z,33.45
2022-12-01T02:26:54.870Z,33.43
2022-12-01T02:29:20.250Z,33.40
2022-12-01T02:31:46.634Z,33.45
2022-12-01T02:34:12.979Z,33.43
2022-12-01T02:36:39.364Z,33.45
2022-12-01T02:39:05.709Z,33.45
2022-12-01T02:41:32.108Z,33.47
2022-12-01T02:43:59.676Z,33.49
2022-12-01T02:46:24.951Z,33.49
2022-12-01T02:48:51.227Z,33.57
2022-12-01T02:51:17.612Z,33.52
2022-12-01T02:53:43.950Z,33.60
2022-12-01T02:56:10.342Z,33.57
2022-12-01T02:58:36.687Z,33.54
2022-12-01T03:01:03.229Z,33.56
2022-12-01T03:03:29.497Z,33.57
2022-12-01T03:05:55.880Z,33.64
2022-12-01T03:08:22.227Z,33.66
2022-12-01T03:10:48.608Z,33.66
2022-12-01T03:13:14.950Z,33.59
2022-12-01T03:15:41.370Z,33.57
2022-12-01T03:18:07.674Z,33.59
2022-12-01T03:20:34.069Z,33.53
2022-12-01T03:23:00.416Z,33.52
2022-12-01T03:25:26.796Z,33.48
2022-12-01T03:28:19.723Z,33.52
2022-12-01T03:30:19.529Z,33.54
2022-12-01T03:32:45.877Z,33.59
2022-12-01T03:35:12.269Z,33.54
2022-12-01T03:37:38.631Z,33.56
2022-12-01T03:40:05.021Z,33.51
2022-12-01T03:42:31.370Z,33.47
2022-12-01T03:44:57.716Z,33.48
2022-12-01T03:47:24.105Z,33.44
2022-12-01T03:49:50.881Z,33.36
2022-12-01T03:52:16.841Z,33.33
2022-12-01T03:54:43.182Z,33.24
2022-12-01T03:57:09.604Z,33.24
2022-12-01T03:59:35.989Z,33.16
2022-12-01T04:02:02.433Z,33.13
2022-12-01T04:04:28.721Z,33.06
2022-12-01T04:06:55.110Z,33.04
2022-12-01T04:09:21.454Z,32.99
2022-12-01T04:11:47.836Z,32.97
2022-12-01T04:14:14.184Z,32.94
2022-12-01T04:16:40.650Z,32.96
2022-12-01T04:19:06.985Z,32.93
2022-12-01T04:21:33.368Z,32.87
2022-12-01T04:23:59.720Z,32.82
2022-12-01T04:26:26.097Z,32.82
2022-12-01T04:28:52.435Z,32.82
2022-12-01T04:31:18.900Z,32.72
2022-12-01T04:33:45.173Z,32.71
2022-12-01T04:36:11.554Z,32.70
2022-12-01T04:38:37.902Z,32.70
2022-12-01T04:41:04.313Z,32.67
2022-12-01T04:43:30.652Z,32.66
2022-12-01T04:45:57.040Z,32.65
2022-12-01T04:48:23.388Z,32.59
2022-12-01T04:50:49.820Z,32.56
2022-12-01T04:53:16.166Z,32.60
2022-12-01T04:55:42.557Z,32.53
2022-12-01T04:58:08.902Z,32.57
2022-12-01T05:00:35.308Z,32.46
2022-12-01T05:03:01.635Z,32.38
2022-12-01T05:05:28.026Z,32.35
2022-12-01T05:07:54.475Z,32.34
2022-12-01T05:10:20.763Z,32.31
2022-12-01T05:12:47.105Z,32.18
2022-12-01T05:15:13.491Z,32.18
2022-12-01T05:17:39.878Z,32.11
2022-12-01T05:20:06.273Z,31.95
2022-12-01T05:23:03.645Z,31.84
2022-12-01T05:25:00.073Z,31.83
2022-12-01T05:27:26.418Z,31.64
2022-12-01T05:29:52.805Z,31.65
2022-12-01T05:32:19.161Z,31.60
2022-12-01T05:34:45.559Z,31.86
2022-12-01T05:37:11.905Z,32.12
2022-12-01T05:39:38.306Z,31.89
2022-12-01T05:42:04.654Z,31.73
2022-12-01T05:44:31.045Z,31.76
2022-12-01T05:46:57.393Z,31.72
2022-12-01T05:49:23.781Z,31.52
2022-12-01T05:51:50.138Z,31.45
2022-12-01T05:54:16.522Z,31.27
2022-12-01T05:56:42.863Z,31.27
2022-12-01T05:59:09.265Z,31.18
2022-12-01T06:01:36.656Z,31.67
2022-12-01T06:04:02.093Z,33.98
2022-12-01T06:06:28.371Z,34.44
2022-12-01T06:08:54.764Z,34.43
2022-12-01T06:11:21.103Z,34.46
2022-12-01T06:13:47.502Z,34.46
2022-12-01T06:16:13.912Z,34.54
2022-12-01T06:18:40.235Z,34.69
2022-12-01T06:21:06.614Z,34.74
2022-12-01T06:23:32.972Z,34.62
2022-12-01T06:25:59.325Z,34.74
2022-12-01T06:28:25.717Z,34.70
2022-12-01T06:30:52.063Z,34.67
2022-12-01T06:33:18.453Z,34.55
2022-12-01T06:35:44.804Z,34.49
2022-12-01T06:38:11.202Z,34.33
2022-12-01T06:40:37.596Z,34.41
2022-12-01T06:43:04.001Z,34.21
2022-12-01T06:45:30.412Z,34.32
2022-12-01T06:47:56.733Z,34.17
2022-12-01T06:50:23.078Z,34.03
2022-12-01T06:52:49.464Z,34.04
2022-12-01T06:55:15.808Z,34.19
2022-12-01T06:57:42.210Z,34.10
2022-12-01T07:00:09.032Z,33.87
2022-12-01T07:02:35.361Z,33.83
2022-12-01T07:05:01.679Z,33.88
2022-12-01T07:07:28.143Z,33.75
2022-12-01T07:09:54.424Z,33.83
2022-12-01T07:12:20.845Z,33.76
2022-12-01T07:14:47.187Z,33.97
2022-12-01T07:17:13.580Z,33.92
2022-12-01T07:19:39.949Z,33.84
2022-12-01T07:22:06.340Z,33.70
2022-12-01T07:24:32.702Z,33.57
2022-12-01T07:26:59.092Z,33.55
2022-12-01T07:29:26.553Z,33.67
2022-12-01T07:31:51.866Z,33.87
2022-12-01T07:34:18.205Z,33.66
2022-12-01T07:36:44.604Z,33.61
2022-12-01T07:39:10.965Z,33.61
2022-12-01T07:41:37.392Z,33.63
2022-12-01T07:44:03.729Z,33.55
2022-12-01T07:46:30.201Z,33.65
2022-12-01T07:48:56.555Z,33.62
2022-12-01T07:51:22.942Z,33.58
2022-12-01T07:53:49.339Z,33.87
2022-12-01T07:56:15.986Z,33.65
2022-12-01T07:58:44.589Z,33.74
2022-12-01T08:01:11.136Z,33.55
2022-12-01T08:03:37.375Z,33.49
2022-12-01T08:06:03.781Z,34.11
2022-12-01T08:08:30.139Z,33.65
2022-12-01T08:10:56.594Z,33.59
2022-12-01T08:13:23.113Z,33.74
2022-12-01T08:15:49.367Z,34.25
2022-12-01T08:18:15.668Z,33.93
2022-12-01T08:20:42.061Z,34.02
2022-12-01T08:23:08.407Z,33.85
2022-12-01T08:25:34.795Z,33.83
2022-12-01T08:28:01.154Z,33.83
2022-12-01T08:30:27.580Z,33.69
2022-12-01T08:32:53.946Z,33.66
2022-12-01T08:35:20.335Z,33.64
2022-12-01T08:37:49.163Z,33.57
2022-12-01T08:40:15.545Z,33.67
2022-12-01T08:42:41.900Z,33.74
2022-12-01T08:45:08.323Z,33.84
2022-12-01T08:47:34.664Z,33.84
2022-12-01T08:50:01.062Z,33.90
2022-12-01T08:52:27.417Z,33.96
2022-12-01T08:54:53.855Z,34.10
2022-12-01T08:57:20.207Z,33.98
2022-12-01T08:59:46.871Z,34.03
2022-12-01T09:02:12.969Z,34.07
2022-12-01T09:04:39.347Z,34.00
2022-12-01T09:07:05.713Z,33.94
2022-12-01T09:12:14.390Z,33.95
2022-12-01T09:14:40.733Z,34.01
2022-12-01T09:17:07.123Z,33.96
2022-12-01T09:19:33.467Z,34.01
2022-12-01T09:21:59.862Z,34.03
2022-12-01T09:24:26.208Z,34.10
2022-12-01T09:26:55.082Z,33.97
2022-12-01T09:29:21.437Z,34.14
2022-12-01T09:31:47.915Z,34.43
2022-12-01T09:34:14.216Z,34.43
2022-12-01T09:36:40.563Z,34.23
2022-12-01T09:39:06.914Z,34.12
2022-12-01T09:41:33.296Z,34.11
2022-12-01T09:43:59.646Z,34.15
2022-12-01T09:46:26.139Z,34.24
2022-12-01T09:48:52.418Z,34.15
2022-12-01T09:51:18.841Z,34.29
2022-12-01T09:53:45.181Z,34.21
2022-12-01T09:56:13.073Z,34.06
2022-12-01T09:58:37.927Z,34.12
2022-12-01T10:01:04.425Z,33.85
2022-12-01T10:06:27.483Z,34.31
2022-12-01T10:08:42.339Z,34.31
2022-12-01T10:11:08.724Z,34.08
2022-12-01T10:13:35.078Z,34.08
2022-12-01T10:16:01.641Z,34.24
2022-12-01T10:18:27.802Z,34.24
2022-12-01T10:20:54.182Z,34.25
2022-12-01T10:23:20.529Z,34.25
2022-12-01T10:25:46.947Z,34.00
2022-12-01T10:28:14.468Z,34.22
2022-12-01T10:30:39.645Z,34.09
2022-12-01T10:33:05.990Z,33.98
2022-12-01T10:35:32.375Z,33.81
2022-12-01T10:37:58.836Z,33.83
2022-12-01T10:40:25.113Z,33.83
2022-12-01T10:42:51.440Z,33.81
2022-12-01T10:45:17.848Z,34.00
2022-12-01T10:47:44.188Z,33.95
2022-12-01T10:50:10.587Z,33.93
2022-12-01T10:52:36.940Z,34.11
2022-12-01T10:55:03.330Z,33.83
2022-12-01T10:57:29.675Z,34.03
2022-12-01T10:59:56.072Z,33.79
2022-12-01T11:02:22.576Z,34.32
2022-12-01T11:04:48.812Z,34.32
2022-12-01T11:07:15.216Z,33.66
2022-12-01T11:09:41.645Z,33.50
2022-12-01T11:12:09.222Z,33.65
2022-12-01T11:14:34.391Z,33.33
2022-12-01T11:17:00.808Z,33.79
2022-12-01T11:19:27.917Z,33.78
2022-12-01T11:21:53.511Z,33.73
2022-12-01T11:24:20.231Z,33.72
2022-12-01T11:26:46.568Z,34.08
2022-12-01T11:29:12.951Z,33.83
2022-12-01T11:31:39.400Z,33.83
2022-12-01T11:34:05.728Z,33.58
2022-12-01T11:36:32.096Z,33.21
2022-12-01T11:38:58.475Z,33.71
2022-12-01T11:41:24.833Z,33.36
2022-12-01T11:44:01.243Z,33.94
2022-12-01T11:46:17.736Z,33.94
2022-12-01T11:48:44.080Z,33.48
2022-12-01T11:51:10.429Z,33.22
2022-12-01T11:53:36.824Z,33.74
2022-12-01T11:56:03.170Z,33.87
2022-12-01T11:58:29.623Z,34.01
2022-12-01T12:00:55.920Z,33.65
2022-12-01T12:03:22.375Z,33.95
2022-12-01T12:05:48.640Z,34.18
2022-12-01T12:08:15.070Z,34.29
2022-12-01T12:10:41.435Z,33.86
2022-12-01T12:13:07.780Z,33.83
2022-12-01T12:15:34.129Z,34.06
2022-12-01T12:18:02.304Z,34.00
2022-12-01T12:20:26.880Z,33.82
2022-12-01T12:22:55.672Z,33.82
2022-12-01T12:25:19.639Z,33.81
2022-12-01T12:27:46.042Z,33.83
2022-12-01T12:30:12.399Z,33.82
2022-12-01T12:32:38.783Z,33.81
2022-12-01T12:35:05.180Z,33.81
2022-12-01T12:37:31.586Z,33.72
2022-12-01T12:39:57.931Z,33.69
2022-12-01T12:42:24.306Z,33.77
2022-12-01T12:44:50.671Z,33.75
2022-12-01T12:47:17.061Z,33.50
2022-12-01T12:49:43.409Z,33.73
2022-12-01T12:52:09.799Z,33.55
2022-12-01T12:54:36.248Z,33.55
2022-12-01T12:57:02.538Z,33.11
2022-12-01T12:59:28.947Z,33.11
2022-12-01T13:01:55.406Z,33.37
2022-12-01T13:04:21.682Z,33.48
2022-12-01T13:06:48.066Z,33.56
2022-12-01T13:09:14.430Z,33.42
2022-12-01T13:11:40.844Z,33.62
2022-12-01T13:14:07.177Z,33.60
2022-12-01T13:16:33.618Z,33.67
2022-12-01T13:18:59.968Z,33.91
2022-12-01T13:21:26.386Z,33.92
2022-12-01T13:23:52.757Z,33.85
2022-12-01T13:26:19.110Z,33.86
2022-12-01T13:28:45.454Z,33.87
2022-12-01T13:31:11.897Z,33.91
2022-12-01T13:33:40.150Z,33.85
2022-12-01T13:36:44.689Z,33.90
2022-12-01T13:38:30.969Z,33.91
2022-12-01T13:40:57.375Z,34.25
2022-12-01T13:43:23.718Z,34.25
2022-12-01T13:45:50.128Z,33.93
2022-12-01T13:48:16.510Z,33.93
2022-12-01T13:50:42.911Z,34.01
2022-12-01T13:53:09.248Z,34.01
2022-12-01T13:55:35.635Z,34.00
2022-12-01T13:58:02.057Z,34.10
2022-12-01T14:00:28.523Z,34.03
2022-12-01T14:02:56.037Z,34.13
2022-12-01T14:05:21.200Z,33.88
2022-12-01T14:07:47.590Z,33.90
2022-12-01T14:10:13.953Z,33.83
2022-12-01T14:12:40.369Z,33.74
2022-12-01T14:15:06.720Z,33.69
2022-12-01T14:17:33.117Z,33.72
2022-12-01T14:19:59.498Z,33.65
2022-12-01T14:22:25.888Z,33.60
2022-12-01T14:24:52.561Z,33.66
2022-12-01T14:27:18.649Z,33.70
2022-12-01T14:29:44.987Z,33.65
2022-12-01T14:32:11.392Z,33.88
2022-12-01T14:34:37.742Z,33.92
2022-12-01T14:37:04.126Z,34.28
2022-12-01T14:39:30.477Z,34.56
2022-12-01T14:41:56.892Z,34.44
2022-12-01T14:44:23.291Z,34.34
2022-12-01T14:46:49.693Z,34.31
2022-12-01T14:49:16.007Z,34.18
2022-12-01T14:51:42.405Z,34.23
2022-12-01T14:54:08.764Z,34.30
2022-12-01T14:56:35.200Z,34.41
2022-12-01T14:59:01.571Z,34.24
2022-12-01T15:01:28.012Z,34.23
2022-12-01T15:03:54.290Z,34.45
2022-12-01T15:06:20.686Z,34.36
2022-12-01T15:09:04.175Z,34.25
2022-12-01T15:11:13.418Z,34.24
2022-12-01T15:13:39.767Z,34.25
2022-12-01T15:16:06.218Z,34.55
2022-12-01T15:18:32.515Z,34.22
2022-12-01T15:20:58.935Z,34.11
2022-12-01T15:23:25.276Z,34.00
2022-12-01T15:25:51.674Z,33.98
2022-12-01T15:28:18.019Z,33.89
2022-12-01T15:30:44.411Z,33.84
2022-12-01T15:33:10.750Z,33.77
2022-12-01T15:35:37.148Z,33.88
2022-12-01T15:38:03.481Z,34.07
2022-12-01T15:42:56.540Z,34.15
2022-12-01T15:45:22.920Z,34.07
2022-12-01T15:47:49.271Z,34.13
2022-12-01T15:50:15.670Z,33.93
2022-12-01T15:52:42.040Z,34.00
2022-12-01T15:55:08.430Z,34.11
2022-12-01T15:57:34.837Z,34.10
2022-12-01T16:00:01.285Z,34.09
2022-12-01T16:02:27.694Z,34.03
2022-12-01T16:04:54.029Z,34.00
2022-12-01T16:07:20.436Z,33.97
2022-12-01T16:09:46.783Z,34.01
2022-12-01T16:12:13.131Z,34.13
2022-12-01T16:14:39.511Z,34.30
2022-12-01T16:17:05.960Z,34.43
2022-12-01T16:19:32.253Z,34.50
2022-12-01T16:21:58.587Z,34.33
2022-12-01T16:24:24.983Z,34.23
2022-12-01T16:26:51.363Z,34.41
2022-12-01T16:29:17.744Z,34.36
2022-12-01T16:32:12.646Z,34.14
2022-12-01T16:34:38.060Z,34.00
2022-12-01T16:36:36.878Z,33.83
2022-12-01T16:39:03.263Z,33.75
2022-12-01T16:41:34.806Z,33.74
2022-12-01T16:44:26.461Z,33.79
2022-12-01T16:46:22.459Z,33.68
2022-12-01T16:48:48.788Z,33.81
2022-12-01T16:51:17.276Z,33.91
2022-12-01T16:53:41.520Z,33.93
2022-12-01T16:56:07.864Z,33.80
2022-12-01T16:58:34.271Z,33.83
2022-12-01T17:01:00.755Z,33.75
2022-12-01T17:03:27.081Z,33.63
2022-12-01T17:05:53.444Z,33.69
2022-12-01T17:08:19.855Z,33.74
2022-12-01T17:10:46.214Z,33.62
2022-12-01T17:13:12.657Z,33.59
2022-12-01T17:15:39.077Z,33.59
2022-12-01T17:18:05.436Z,33.63
2022-12-01T17:20:31.778Z,33.77
2022-12-01T17:22:58.209Z,33.79
2022-12-01T17:25:24.546Z,33.74
2022-12-01T17:27:50.929Z,33.68
2022-12-01T17:30:17.304Z,33.74
2022-12-01T17:32:43.701Z,33.61
2022-12-01T17:35:10.030Z,33.60
2022-12-01T17:37:36.429Z,33.49
2022-12-01T17:40:02.796Z,33.60
2022-12-01T17:42:29.221Z,33.70
2022-12-01T17:44:55.557Z,33.89
2022-12-01T17:47:21.947Z,33.90
2022-12-01T17:49:48.426Z,33.88
2022-12-01T17:52:14.762Z,33.83
2022-12-01T17:54:41.076Z,33.68
2022-12-01T17:57:07.544Z,33.84
2022-12-01T17:59:33.840Z,33.74
2022-12-01T18:02:00.290Z,33.75
2022-12-01T18:04:26.609Z,33.67
2022-12-01T18:06:54.464Z,33.65
2022-12-01T18:09:19.376Z,33.62
2022-12-01T18:11:45.853Z,33.69
2022-12-01T18:14:12.185Z,33.83
2022-12-01T18:16:38.661Z,33.91
2022-12-01T18:19:04.931Z,33.88
2022-12-01T18:21:31.313Z,34.11
2022-12-01T18:23:57.656Z,34.07
2022-12-01T18:26:24.065Z,34.01
2022-12-01T18:28:50.499Z,34.00
2022-12-01T18:31:17.013Z,34.03
2022-12-01T18:33:43.260Z,34.00
2022-12-01T18:36:09.664Z,33.94
2022-12-01T18:38:36.040Z,33.75
2022-12-01T18:41:02.434Z,33.64
2022-12-01T18:43:28.779Z,33.62
2022-12-01T18:45:55.175Z,33.58
2022-12-01T18:48:21.513Z,33.60
2022-12-01T18:50:47.896Z,33.47
2022-12-01T18:53:14.240Z,33.53
2022-12-01T18:55:40.626Z,33.47
2022-12-01T18:58:06.961Z,33.61
2022-12-01T19:00:33.416Z,33.91
2022-12-01T19:02:59.702Z,33.96
2022-12-01T19:05:26.086Z,33.98
2022-12-01T19:07:52.477Z,34.11
2022-12-01T19:10:20.480Z,34.30
2022-12-01T19:12:45.173Z,34.56
2022-12-01T19:15:11.567Z,34.64
2022-12-01T19:17:37.927Z,34.70
2022-12-01T19:20:04.484Z,34.79
2022-12-01T19:22:30.666Z,34.83
2022-12-01T19:24:57.279Z,35.01
2022-12-01T19:27:23.398Z,35.02
2022-12-01T19:29:49.795Z,35.11
2022-12-01T19:32:16.137Z,35.14
2022-12-01T19:34:44.485Z,35.19
2022-12-01T19:37:08.865Z,35.27
2022-12-01T19:39:35.274Z,35.34
2022-12-01T19:42:01.612Z,35.47
2022-12-01T19:44:28.006Z,35.48
2022-12-01T19:46:54.434Z,35.52
2022-12-01T19:49:20.758Z,35.57
2022-12-01T19:51:47.139Z,35.60
2022-12-01T19:54:13.518Z,35.62
2022-12-01T19:56:39.856Z,35.75
2022-12-01T19:59:06.242Z,35.65
2022-12-01T20:01:32.656Z,35.75
2022-12-01T20:03:58.976Z,35.76
2022-12-01T20:06:25.314Z,35.79
2022-12-01T20:08:51.712Z,35.81
2022-12-01T20:11:18.058Z,35.80
2022-12-01T20:13:44.443Z,35.87
2022-12-01T20:16:10.841Z,35.87
2022-12-01T20:18:37.176Z,35.92
2022-12-01T20:21:03.585Z,35.98
2022-12-01T20:23:29.970Z,35.94
2022-12-01T20:25:56.379Z,36.00
2022-12-01T20:28:22.769Z,36.10
2022-12-01T20:30:49.113Z,36.07
2022-12-01T20:33:15.531Z,36.06
2022-12-01T20:35:41.878Z,36.07
2022-12-01T20:38:08.312Z,36.11
2022-12-01T20:40:34.745Z,36.10
2022-12-01T20:43:01.130Z,36.20
2022-12-01T20:45:27.557Z,36.19
2022-12-01T20:47:53.862Z,36.17
2022-12-01T20:50:20.208Z,36.20
2022-12-01T20:52:46.602Z,36.20
2022-12-01T20:55:12.941Z,36.24
2022-12-01T20:57:39.320Z,36.22
2022-12-01T21:00:05.666Z,36.22
2022-12-01T21:02:32.113Z,36.30
2022-12-01T21:04:59.322Z,36.39
2022-12-01T21:07:24.812Z,36.27
2022-12-01T21:09:51.140Z,36.25
2022-12-01T21:12:17.536Z,36.32
2022-12-01T21:14:43.891Z,36.30
2022-12-01T21:17:10.315Z,36.43
2022-12-01T21:19:36.695Z,36.38
2022-12-01T21:22:03.003Z,36.41
2022-12-01T21:24:34.835Z,36.50
2022-12-01T21:26:55.734Z,36.42
2022-12-01T21:29:22.080Z,36.45
2022-12-01T21:31:48.458Z,36.47
2022-12-01T21:34:14.800Z,36.48
2022-12-01T21:36:41.185Z,36.53
2022-12-01T21:39:07.551Z,36.50
2022-12-01T21:41:33.940Z,36.54
2022-12-01T21:44:00.352Z,36.52
2022-12-01T21:46:26.767Z,36.54
2022-12-01T21:48:53.083Z,36.53
2022-12-01T21:51:19.468Z,36.49
2022-12-01T21:53:45.814Z,36.50
2022-12-01T21:56:12.205Z,36.51
2022-12-01T21:58:38.581Z,36.56
2022-12-01T22:01:05.024Z,36.60
2022-12-01T22:03:31.316Z,36.63
2022-12-01T22:06:27.724Z,36.63
2022-12-01T22:08:24.084Z,36.69
2022-12-01T22:10:50.461Z,36.71
2022-12-01T22:13:16.802Z,36.71
2022-12-01T22:15:43.233Z,36.67
2022-12-01T22:18:09.542Z,36.68
2022-12-01T22:20:35.931Z,36.76
2022-12-01T22:23:02.284Z,36.81
2022-12-01T22:25:28.739Z,36.87
2022-12-01T22:27:55.083Z,36.88
2022-12-01T22:30:21.470Z,36.89
2022-12-01T22:32:47.811Z,36.89
2022-12-01T22:35:14.203Z,36.88
2022-12-01T22:37:40.561Z,36.88
2022-12-01T22:40:06.939Z,36.85
2022-12-01T22:42:33.327Z,36.84
2022-12-01T22:44:59.711Z,36.92
2022-12-01T22:47:26.054Z,36.86
2022-12-01T22:49:52.434Z,36.89
2022-12-01T22:52:18.780Z,36.97
2022-12-01T22:54:45.176Z,36.92
2022-12-01T22:57:11.518Z,37.00
2022-12-01T22:59:37.902Z,37.01
2022-12-01T23:02:04.313Z,37.00
2022-12-01T23:04:30.667Z,37.00
2022-12-01T23:06:57.012Z,37.00
2022-12-01T23:09:23.394Z,37.01
2022-12-01T23:11:49.733Z,37.00
2022-12-01T23:14:16.125Z,37.11
2022-12-01T23:16:42.470Z,37.12
2022-12-01T23:19:10.524Z,37.05
2022-12-01T23:21:35.261Z,37.07
2022-12-01T23:24:01.611Z,37.11
2022-12-01T23:26:27.946Z,37.08
2022-12-01T23:28:54.330Z,37.15
2022-12-01T23:31:20.704Z,37.09
2022-12-01T23:33:47.139Z,37.18
2022-12-01T23:36:13.481Z,37.17
2022-12-01T23:38:41.144Z,37.15
2022-12-01T23:41:06.218Z,37.30
2022-12-01T23:43:32.622Z,37.18
2022-12-01T23:45:58.972Z,37.16
2022-12-01T23:48:25.386Z,37.07
2022-12-01T23:50:51.737Z,37.09
2022-12-01T23:53:18.109Z,37.11
2022-12-01T23:55:44.452Z,37.10
2022-12-01T23:58:10.835Z,37.10
